createdAt,value
2019-04-12T00:00:30.832Z,6.15
2019-04-12T00:01:32.988Z,6.14
2019-04-12T00:02:32.595Z,6.21
2019-04-12T00:03:31.091Z,6.18
2019-04-12T00:04:31.793Z,6.21
2019-04-12T00:05:29.730Z,6.27
2019-04-12T00:06:32.765Z,6.12
2019-04-12T00:07:32.596Z,6.15
2019-04-12T00:08:30.949Z,6.12
2019-04-12T00:09:29.573Z,6.15
2019-04-12T00:10:29.135Z,6.14
2019-04-12T00:11:29.124Z,6.18
2019-04-12T00:12:29.088Z,6.18
2019-04-12T00:13:29.067Z,6.15
2019-04-12T00:14:29.042Z,6.18
2019-04-12T00:15:29.016Z,6.17
2019-04-12T00:16:29.001Z,6.21
2019-04-12T00:17:28.969Z,6.19
2019-04-12T00:18:28.945Z,6.15
2019-04-12T00:19:28.925Z,6.14
2019-04-12T00:20:28.895Z,6.14
2019-04-12T00:21:28.873Z,6.11
2019-04-12T00:22:28.849Z,6.04
2019-04-12T00:23:28.879Z,6.09
2019-04-12T00:24:34.634Z,6.17
2019-04-12T00:25:28.777Z,6.12
2019-04-12T00:26:28.755Z,6.12
2019-04-12T00:27:28.727Z,6.18
2019-04-12T00:28:28.704Z,6.21
2019-04-12T00:29:28.682Z,6.15
2019-04-12T00:30:28.657Z,6.12
2019-04-12T00:31:28.635Z,6.12
2019-04-12T00:32:28.644Z,6.11
2019-04-12T00:33:28.593Z,6.14
2019-04-12T00:34:28.562Z,6.21
2019-04-12T00:35:28.547Z,6.11
2019-04-12T00:36:28.514Z,6.14
2019-04-12T00:37:28.494Z,6.11
2019-04-12T00:38:28.468Z,6.12
2019-04-12T00:39:30.389Z,6.03
2019-04-12T00:40:29.034Z,6.14
2019-04-12T00:41:32.073Z,6.11
2019-04-12T00:42:28.369Z,6.15
2019-04-12T00:43:28.355Z,6.04
2019-04-12T00:44:28.322Z,6.01
2019-04-12T00:45:28.300Z,6.04
2019-04-12T00:46:28.274Z,6.03
2019-04-12T00:47:28.249Z,6.08
2019-04-12T00:48:28.227Z,6.03
2019-04-12T00:49:28.204Z,6.01
2019-04-12T00:50:28.177Z,6.03
2019-04-12T00:51:28.167Z,6.03
2019-04-12T00:52:28.134Z,6.03
2019-04-12T00:53:28.121Z,6.11
2019-04-12T00:54:28.089Z,5.97
2019-04-12T00:55:28.059Z,6.04
2019-04-12T00:56:28.034Z,6.06
2019-04-12T00:57:28.035Z,6.03
2019-04-12T00:58:27.996Z,6.00
2019-04-12T00:59:27.966Z,6.01
2019-04-12T01:00:27.943Z,6.01
2019-04-12T01:01:27.966Z,6.01
2019-04-12T01:02:27.890Z,5.94
2019-04-12T01:03:27.866Z,5.96
2019-04-12T01:04:27.869Z,5.93
2019-04-12T01:05:27.819Z,6.01
2019-04-12T01:06:27.794Z,6.01
2019-04-12T01:07:27.771Z,5.91
2019-04-12T01:08:27.746Z,6.00
2019-04-12T01:09:27.721Z,6.01
2019-04-12T01:10:27.698Z,6.00
2019-04-12T01:11:27.674Z,6.00
2019-04-12T01:12:27.652Z,6.00
2019-04-12T01:13:27.819Z,6.01
2019-04-12T01:14:28.406Z,5.99
2019-04-12T01:15:29.942Z,5.94
2019-04-12T01:16:29.932Z,6.01
2019-04-12T01:17:29.004Z,6.03
2019-04-12T01:18:27.512Z,5.96
2019-04-12T01:19:27.486Z,5.99
2019-04-12T01:20:27.460Z,5.91
2019-04-12T01:21:27.436Z,5.90
2019-04-12T01:22:27.415Z,5.96
2019-04-12T01:23:27.386Z,5.93
2019-04-12T01:24:27.370Z,5.97
2019-04-12T01:25:27.337Z,5.93
2019-04-12T01:26:27.315Z,5.90
2019-04-12T01:27:27.290Z,5.99
2019-04-12T01:28:27.269Z,5.93
2019-04-12T01:29:27.249Z,5.94
2019-04-12T01:30:27.219Z,5.91
2019-04-12T01:31:27.196Z,5.93
2019-04-12T01:32:27.177Z,5.94
2019-04-12T01:33:27.157Z,5.96
2019-04-12T01:34:27.124Z,5.97
2019-04-12T01:35:27.102Z,6.00
2019-04-12T01:36:27.076Z,5.94
2019-04-12T01:37:27.052Z,5.93
2019-04-12T01:38:27.034Z,5.93
2019-04-12T01:39:27.006Z,5.97
2019-04-12T01:40:26.979Z,5.96
2019-04-12T01:41:26.958Z,5.93
2019-04-12T01:42:26.935Z,5.93
2019-04-12T01:43:26.910Z,5.93
2019-04-12T01:44:26.886Z,5.91
2019-04-12T01:45:26.862Z,5.96
2019-04-12T01:46:26.847Z,5.94
2019-04-12T01:47:26.811Z,5.86
2019-04-12T01:48:26.786Z,5.96
2019-04-12T01:49:26.765Z,5.91
2019-04-12T01:50:26.742Z,5.90
2019-04-12T01:51:26.715Z,5.83
2019-04-12T01:52:26.692Z,5.94
2019-04-12T01:53:26.671Z,5.96
2019-04-12T01:54:26.644Z,5.85
2019-04-12T01:55:26.617Z,5.89
2019-04-12T01:56:26.600Z,5.90
2019-04-12T01:57:26.573Z,5.89
2019-04-12T01:58:26.554Z,5.94
2019-04-12T01:59:26.525Z,5.83
2019-04-12T02:00:26.502Z,5.82
2019-04-12T02:01:26.477Z,5.83
2019-04-12T02:02:26.456Z,5.85
2019-04-12T02:03:26.429Z,5.82
2019-04-12T02:04:26.404Z,5.85
2019-04-12T02:05:26.384Z,5.79
2019-04-12T02:06:26.364Z,5.79
2019-04-12T02:07:26.331Z,5.79
2019-04-12T02:08:26.307Z,5.81
2019-04-12T02:09:26.294Z,5.72
2019-04-12T02:10:26.261Z,5.74
2019-04-12T02:11:26.241Z,5.68
2019-04-12T02:12:26.223Z,5.72
2019-04-12T02:13:26.186Z,5.74
2019-04-12T02:14:26.168Z,5.65
2019-04-12T02:15:26.139Z,5.72
2019-04-12T02:16:26.114Z,5.76
2019-04-12T02:17:26.095Z,5.75
2019-04-12T02:18:26.070Z,5.71
2019-04-12T02:19:26.044Z,5.71
2019-04-12T02:20:26.022Z,5.72
2019-04-12T02:21:26.002Z,5.82
2019-04-12T02:22:25.973Z,5.78
2019-04-12T02:23:25.947Z,5.79
2019-04-12T02:24:25.924Z,5.72
2019-04-12T02:25:27.483Z,5.78
2019-04-12T02:26:25.875Z,5.72
2019-04-12T02:27:25.851Z,5.68
2019-04-12T02:28:25.829Z,5.63
2019-04-12T02:29:25.803Z,5.71
2019-04-12T02:30:29.299Z,5.61
2019-04-12T02:31:25.763Z,5.58
2019-04-12T02:32:25.733Z,5.67
2019-04-12T02:33:25.708Z,5.67
2019-04-12T02:34:25.685Z,5.64
2019-04-12T02:35:25.659Z,5.64
2019-04-12T02:36:25.636Z,5.57
2019-04-12T02:37:25.615Z,5.64
2019-04-12T02:38:25.586Z,5.67
2019-04-12T02:39:25.640Z,5.63
2019-04-12T02:40:25.538Z,5.67
2019-04-12T02:41:25.516Z,5.58
2019-04-12T02:42:25.501Z,5.54
2019-04-12T02:43:25.464Z,5.54
2019-04-12T02:44:25.441Z,5.65
2019-04-12T02:45:25.419Z,5.65
2019-04-12T02:46:25.395Z,5.67
2019-04-12T02:47:25.369Z,5.54
2019-04-12T02:48:25.349Z,5.64
2019-04-12T02:49:25.320Z,5.67
2019-04-12T02:50:25.434Z,5.61
2019-04-12T02:51:25.271Z,5.67
2019-04-12T02:52:25.247Z,5.67
2019-04-12T02:53:25.226Z,5.63
2019-04-12T02:54:25.536Z,5.60
2019-04-12T02:55:37.105Z,5.56
2019-04-12T02:56:25.154Z,5.51
2019-04-12T02:57:25.130Z,5.48
2019-04-12T02:58:25.105Z,5.53
2019-04-12T02:59:25.134Z,5.54
2019-04-12T03:00:25.055Z,5.51
2019-04-12T03:01:25.033Z,5.51
2019-04-12T03:02:25.011Z,5.61
2019-04-12T03:03:24.986Z,5.53
2019-04-12T03:04:24.969Z,5.51
2019-04-12T03:05:24.933Z,5.57
2019-04-12T03:06:24.917Z,5.53
2019-04-12T03:07:24.885Z,5.51
2019-04-12T03:08:24.881Z,5.54
2019-04-12T03:09:24.843Z,5.58
2019-04-12T03:10:24.819Z,5.46
2019-04-12T03:11:24.793Z,5.58
2019-04-12T03:12:24.767Z,5.60
2019-04-12T03:13:24.759Z,5.58
2019-04-12T03:14:24.731Z,5.49
2019-04-12T03:15:24.694Z,5.54
2019-04-12T03:16:24.674Z,5.53
2019-04-12T03:17:24.651Z,5.53
2019-04-12T03:18:24.623Z,5.53
2019-04-12T03:19:24.596Z,5.53
2019-04-12T03:20:24.576Z,5.39
2019-04-12T03:21:24.551Z,5.54
2019-04-12T03:22:24.525Z,5.45
2019-04-12T03:23:24.500Z,5.46
2019-04-12T03:24:24.484Z,5.39
2019-04-12T03:25:24.452Z,5.38
2019-04-12T03:26:24.432Z,5.46
2019-04-12T03:27:24.407Z,5.43
2019-04-12T03:28:24.387Z,5.39
2019-04-12T03:29:24.354Z,5.45
2019-04-12T03:30:24.335Z,5.39
2019-04-12T03:31:24.329Z,5.36
2019-04-12T03:32:24.291Z,5.28
2019-04-12T03:33:24.262Z,5.27
2019-04-12T03:34:24.250Z,5.39
2019-04-12T03:35:24.209Z,5.28
2019-04-12T03:36:24.186Z,5.27
2019-04-12T03:37:24.161Z,5.31
2019-04-12T03:38:24.137Z,5.35
2019-04-12T03:39:24.115Z,5.31
2019-04-12T03:40:24.089Z,5.39
2019-04-12T03:41:24.064Z,5.35
2019-04-12T03:42:24.051Z,5.39
2019-04-12T03:43:24.015Z,5.31
2019-04-12T03:44:23.989Z,5.31
2019-04-12T03:45:23.965Z,5.39
2019-04-12T03:46:23.944Z,5.36
2019-04-12T03:47:23.916Z,5.30
2019-04-12T03:48:23.895Z,5.38
2019-04-12T03:49:23.872Z,5.38
2019-04-12T03:50:23.851Z,5.28
2019-04-12T03:51:23.819Z,5.30
2019-04-12T03:52:23.795Z,5.25
2019-04-12T03:53:23.774Z,5.25
2019-04-12T03:54:23.748Z,5.25
2019-04-12T03:55:23.721Z,5.17
2019-04-12T03:56:23.704Z,5.22
2019-04-12T03:57:23.676Z,5.25
2019-04-12T03:58:23.653Z,5.25
2019-04-12T03:59:23.632Z,5.25
2019-04-12T04:00:25.116Z,5.31
2019-04-12T04:01:23.584Z,5.31
2019-04-12T04:02:23.559Z,5.39
2019-04-12T04:03:23.527Z,5.27
2019-04-12T04:04:23.505Z,5.39
2019-04-12T04:05:23.477Z,5.24
2019-04-12T04:06:23.455Z,5.25
2019-04-12T04:07:23.428Z,5.24
2019-04-12T04:08:23.448Z,5.22
2019-04-12T04:09:23.393Z,5.25
2019-04-12T04:10:23.357Z,5.22
2019-04-12T04:11:23.337Z,5.20
2019-04-12T04:12:23.307Z,5.25
2019-04-12T04:13:23.287Z,5.18
2019-04-12T04:14:23.266Z,5.20
2019-04-12T04:15:23.235Z,5.20
2019-04-12T04:16:23.212Z,5.12
2019-04-12T04:17:23.197Z,5.20
2019-04-12T04:18:23.166Z,5.09
2019-04-12T04:19:23.139Z,5.09
2019-04-12T04:20:23.113Z,5.10
2019-04-12T04:21:23.096Z,5.15
2019-04-12T04:22:23.068Z,5.12
2019-04-12T04:23:23.046Z,5.17
2019-04-12T04:24:23.016Z,5.07
2019-04-12T04:25:22.990Z,5.03
2019-04-12T04:26:24.065Z,5.09
2019-04-12T04:27:22.944Z,5.12
2019-04-12T04:28:22.920Z,5.06
2019-04-12T04:29:22.893Z,5.09
2019-04-12T04:30:22.878Z,5.00
2019-04-12T04:31:22.848Z,5.06
2019-04-12T04:32:22.886Z,4.97
2019-04-12T04:33:22.795Z,5.04
2019-04-12T04:34:22.774Z,5.00
2019-04-12T04:35:22.753Z,4.99
2019-04-12T04:36:22.723Z,5.04
2019-04-12T04:37:22.698Z,5.00
2019-04-12T04:38:26.391Z,5.00
2019-04-12T04:39:22.649Z,4.88
2019-04-12T04:40:22.634Z,5.03
2019-04-12T04:41:22.604Z,4.94
2019-04-12T04:42:22.577Z,4.94
2019-04-12T04:43:22.553Z,4.94
2019-04-12T04:44:22.531Z,4.91
2019-04-12T04:45:22.504Z,4.94
2019-04-12T04:46:22.480Z,4.92
2019-04-12T04:47:22.453Z,5.00
2019-04-12T04:48:22.430Z,4.97
2019-04-12T04:49:22.404Z,4.91
2019-04-12T04:50:22.381Z,4.94
2019-04-12T04:51:22.360Z,5.00
2019-04-12T04:52:22.335Z,4.88
2019-04-12T04:53:22.307Z,4.92
2019-04-12T04:54:22.283Z,4.91
2019-04-12T04:55:22.259Z,4.96
2019-04-12T04:56:33.467Z,4.99
2019-04-12T04:57:22.223Z,4.92
2019-04-12T04:58:22.185Z,4.92
2019-04-12T04:59:22.161Z,4.92
2019-04-12T05:00:22.135Z,4.89
2019-04-12T05:01:22.113Z,4.85
2019-04-12T05:02:22.091Z,4.88
2019-04-12T05:03:22.062Z,4.94
2019-04-12T05:04:22.041Z,4.91
2019-04-12T05:05:22.014Z,4.89
2019-04-12T05:06:21.987Z,4.92
2019-04-12T05:07:21.961Z,4.91
2019-04-12T05:08:21.941Z,4.91
2019-04-12T05:09:21.912Z,4.85
2019-04-12T05:10:21.896Z,4.96
2019-04-12T05:11:21.863Z,4.94
2019-04-12T05:12:21.847Z,4.96
2019-04-12T05:13:21.818Z,4.99
2019-04-12T05:14:21.791Z,4.97
2019-04-12T05:15:21.767Z,4.94
2019-04-12T05:16:21.742Z,4.92
2019-04-12T05:17:21.719Z,4.92
2019-04-12T05:18:21.695Z,4.91
2019-04-12T05:19:21.667Z,4.85
2019-04-12T05:20:21.643Z,4.82
2019-04-12T05:21:21.618Z,4.85
2019-04-12T05:22:21.595Z,4.80
2019-04-12T05:23:21.572Z,4.84
2019-04-12T05:24:21.547Z,4.77
2019-04-12T05:25:21.519Z,4.86
2019-04-12T05:26:21.500Z,4.84
2019-04-12T05:27:21.470Z,4.82
2019-04-12T05:28:23.075Z,4.78
2019-04-12T05:29:21.421Z,4.84
2019-04-12T05:30:21.398Z,4.80
2019-04-12T05:31:21.371Z,4.73
2019-04-12T05:32:21.347Z,4.75
2019-04-12T05:33:21.323Z,4.72
2019-04-12T05:34:21.308Z,4.82
2019-04-12T05:35:21.276Z,4.77
2019-04-12T05:36:21.256Z,4.82
2019-04-12T05:37:21.227Z,4.80
2019-04-12T05:38:21.202Z,4.80
2019-04-12T05:39:21.177Z,4.84
2019-04-12T05:40:21.155Z,4.85
2019-04-12T05:41:21.127Z,4.89
2019-04-12T05:42:21.100Z,4.86
2019-04-12T05:43:21.077Z,4.89
2019-04-12T05:44:21.049Z,4.82
2019-04-12T05:45:21.027Z,4.88
2019-04-12T05:46:21.003Z,4.85
2019-04-12T05:47:20.978Z,4.86
2019-04-12T05:48:20.953Z,4.88
2019-04-12T05:49:20.931Z,4.86
2019-04-12T05:50:20.903Z,4.85
2019-04-12T05:51:23.210Z,4.84
2019-04-12T05:52:20.856Z,4.88
2019-04-12T05:53:20.827Z,4.84
2019-04-12T05:54:20.804Z,4.86
2019-04-12T05:55:20.783Z,4.73
2019-04-12T05:56:20.753Z,4.72
2019-04-12T05:57:20.730Z,4.70
2019-04-12T05:58:20.706Z,4.73
2019-04-12T05:59:20.679Z,4.77
2019-04-12T06:00:20.654Z,4.82
2019-04-12T06:01:20.632Z,4.82
2019-04-12T06:02:20.609Z,4.80
2019-04-12T06:03:20.580Z,4.80
2019-04-12T06:04:20.557Z,4.73
2019-04-12T06:05:20.531Z,4.69
2019-04-12T06:06:20.509Z,4.73
2019-04-12T06:07:20.480Z,4.88
2019-04-12T06:08:20.459Z,4.84
2019-04-12T06:09:20.436Z,4.78
2019-04-12T06:10:20.415Z,4.80
2019-04-12T06:11:20.382Z,4.86
2019-04-12T06:12:20.359Z,4.85
2019-04-12T06:13:20.337Z,4.86
2019-04-12T06:14:20.311Z,4.88
2019-04-12T06:15:20.284Z,4.82
2019-04-12T06:16:20.271Z,4.82
2019-04-12T06:17:20.235Z,4.82
2019-04-12T06:18:20.381Z,4.82
2019-04-12T06:19:20.184Z,4.84
2019-04-12T06:20:20.162Z,4.85
2019-04-12T06:21:20.136Z,4.88
2019-04-12T06:22:20.120Z,4.82
2019-04-12T06:23:20.087Z,4.86
2019-04-12T06:24:20.063Z,4.75
2019-04-12T06:25:20.055Z,4.75
2019-04-12T06:26:20.013Z,4.75
2019-04-12T06:27:19.988Z,4.78
2019-04-12T06:28:19.964Z,4.88
2019-04-12T06:29:19.939Z,4.84
2019-04-12T06:30:19.923Z,4.86
2019-04-12T06:31:19.891Z,4.78
2019-04-12T06:32:19.865Z,4.80
2019-04-12T06:33:19.843Z,4.82
2019-04-12T06:34:19.815Z,4.89
2019-04-12T06:35:19.797Z,4.94
2019-04-12T06:36:19.773Z,4.94
2019-04-12T06:37:19.742Z,4.94
2019-04-12T06:38:19.727Z,4.97
2019-04-12T06:39:19.752Z,5.04
2019-04-12T06:40:19.670Z,4.99
2019-04-12T06:41:19.642Z,5.02
2019-04-12T06:42:19.617Z,5.09
2019-04-12T06:43:19.596Z,4.94
2019-04-12T06:44:19.567Z,4.89
2019-04-12T06:45:19.547Z,5.00
2019-04-12T06:46:19.524Z,5.00
2019-04-12T06:47:19.496Z,4.91
2019-04-12T06:48:19.470Z,4.94
2019-04-12T06:49:19.443Z,4.99
2019-04-12T06:50:19.417Z,5.10
2019-04-12T06:51:19.395Z,5.04
2019-04-12T06:52:19.369Z,4.99
2019-04-12T06:53:19.344Z,5.03
2019-04-12T06:54:19.321Z,5.07
2019-04-12T06:55:19.296Z,5.06
2019-04-12T06:56:19.270Z,5.09
2019-04-12T06:57:23.286Z,5.03
2019-04-12T06:58:19.228Z,5.02
2019-04-12T06:59:19.195Z,5.03
2019-04-12T07:00:19.172Z,5.09
2019-04-12T07:01:19.158Z,5.03
2019-04-12T07:02:19.122Z,5.09
2019-04-12T07:03:19.102Z,5.07
2019-04-12T07:04:19.071Z,5.07
2019-04-12T07:05:19.050Z,5.00
2019-04-12T07:06:19.028Z,5.07
2019-04-12T07:07:19.010Z,5.15
2019-04-12T07:08:18.975Z,5.24
2019-04-12T07:09:18.955Z,5.27
2019-04-12T07:10:18.925Z,5.22
2019-04-12T07:11:18.899Z,5.22
2019-04-12T07:12:18.879Z,5.20
2019-04-12T07:13:18.851Z,5.22
2019-04-12T07:14:18.825Z,5.15
2019-04-12T07:15:18.802Z,5.25
2019-04-12T07:16:18.777Z,5.20
2019-04-12T07:17:18.754Z,5.27
2019-04-12T07:18:18.729Z,5.35
2019-04-12T07:19:18.719Z,5.30
2019-04-12T07:20:18.680Z,5.45
2019-04-12T07:21:18.663Z,5.35
2019-04-12T07:22:18.630Z,5.35
2019-04-12T07:23:18.605Z,5.43
2019-04-12T07:24:18.584Z,5.36
2019-04-12T07:25:18.555Z,5.31
2019-04-12T07:26:18.538Z,5.40
2019-04-12T07:27:18.507Z,5.38
2019-04-12T07:28:18.485Z,5.38
2019-04-12T07:29:18.457Z,5.39
2019-04-12T07:30:18.433Z,5.40
2019-04-12T07:31:18.408Z,5.30
2019-04-12T07:32:18.384Z,5.33
2019-04-12T07:33:18.360Z,5.46
2019-04-12T07:34:18.335Z,5.40
2019-04-12T07:35:18.311Z,5.45
2019-04-12T07:36:18.285Z,5.51
2019-04-12T07:37:18.267Z,5.49
2019-04-12T07:38:18.236Z,5.53
2019-04-12T07:39:18.211Z,5.51
2019-04-12T07:40:18.187Z,5.43
2019-04-12T07:41:18.164Z,5.39
2019-04-12T07:42:18.139Z,5.49
2019-04-12T07:43:18.113Z,5.53
2019-04-12T07:44:18.091Z,5.60
2019-04-12T07:45:19.019Z,5.60
2019-04-12T07:46:18.040Z,5.51
2019-04-12T07:47:18.016Z,5.53
2019-04-12T07:48:17.994Z,5.49
2019-04-12T07:49:17.969Z,5.53
2019-04-12T07:50:17.944Z,5.46
2019-04-12T07:51:17.921Z,5.49
2019-04-12T07:52:17.904Z,5.48
2019-04-12T07:53:17.869Z,5.53
2019-04-12T07:54:17.862Z,5.46
2019-04-12T07:55:17.823Z,5.53
2019-04-12T07:56:17.793Z,5.53
2019-04-12T07:57:17.771Z,5.53
2019-04-12T07:58:17.753Z,5.53
2019-04-12T07:59:17.733Z,5.49
2019-04-12T08:00:17.701Z,5.46
2019-04-12T08:01:17.676Z,5.58
2019-04-12T08:02:17.650Z,5.49
2019-04-12T08:03:17.626Z,5.46
2019-04-12T08:04:17.602Z,5.43
2019-04-12T08:05:17.580Z,5.43
2019-04-12T08:06:17.554Z,5.48
2019-04-12T08:07:17.526Z,5.36
2019-04-12T08:08:17.504Z,5.30
2019-04-12T08:09:17.488Z,5.27
2019-04-12T08:10:17.456Z,5.33
2019-04-12T08:11:17.439Z,5.51
2019-04-12T08:12:17.410Z,5.53
2019-04-12T08:13:17.395Z,5.61
2019-04-12T08:14:19.355Z,5.65
2019-04-12T08:15:17.335Z,5.61
2019-04-12T08:16:17.307Z,5.63
2019-04-12T08:17:17.295Z,5.63
2019-04-12T08:18:17.260Z,5.64
2019-04-12T08:19:17.236Z,5.61
2019-04-12T08:20:17.209Z,5.65
2019-04-12T08:21:17.183Z,5.60
2019-04-12T08:22:17.165Z,5.58
2019-04-12T08:23:17.135Z,5.57
2019-04-12T08:24:17.111Z,5.64
2019-04-12T08:25:17.095Z,5.72
2019-04-12T08:26:17.064Z,5.64
2019-04-12T08:27:17.038Z,5.65
2019-04-12T08:28:17.014Z,5.64
2019-04-12T08:29:17.011Z,5.71
2019-04-12T08:30:16.965Z,5.71
2019-04-12T08:31:16.951Z,5.81
2019-04-12T08:32:16.922Z,5.81
2019-04-12T08:33:16.901Z,5.64
2019-04-12T08:34:16.868Z,5.64
2019-04-12T08:35:16.848Z,5.60
2019-04-12T08:36:16.824Z,5.64
2019-04-12T08:37:16.793Z,5.64
2019-04-12T08:38:16.771Z,5.60
2019-04-12T08:39:16.745Z,5.63
2019-04-12T08:40:16.721Z,5.79
2019-04-12T08:41:16.695Z,5.83
2019-04-12T08:42:16.675Z,5.93
2019-04-12T08:43:16.649Z,5.89
2019-04-12T08:44:16.621Z,5.71
2019-04-12T08:45:16.599Z,5.85
2019-04-12T08:46:19.000Z,5.89
2019-04-12T08:47:16.566Z,5.91
2019-04-12T08:48:16.554Z,6.06
2019-04-12T08:49:16.542Z,6.04
2019-04-12T08:50:16.481Z,6.01
2019-04-12T08:51:22.349Z,6.19
2019-04-12T08:52:16.468Z,6.30
2019-04-12T08:53:16.611Z,6.52
2019-04-12T08:54:16.423Z,6.74
2019-04-12T08:55:17.729Z,6.79
2019-04-12T08:56:16.398Z,6.80
2019-04-12T08:57:16.335Z,6.79
2019-04-12T08:58:16.336Z,6.71
2019-04-12T08:59:16.289Z,6.70
2019-04-12T09:00:16.290Z,6.64
2019-04-12T09:01:16.261Z,6.43
2019-04-12T09:02:16.189Z,6.46
2019-04-12T09:03:16.164Z,6.54
2019-04-12T09:04:16.223Z,6.59
2019-04-12T09:05:16.173Z,6.66
2019-04-12T09:06:16.115Z,6.84
2019-04-12T09:07:16.170Z,6.80
2019-04-12T09:08:16.066Z,6.76
2019-04-12T09:09:16.064Z,6.80
2019-04-12T09:10:16.008Z,6.66
2019-04-12T09:11:16.059Z,6.77
2019-04-12T09:12:16.020Z,6.67
2019-04-12T09:13:16.018Z,6.44
2019-04-12T09:14:15.931Z,6.30
2019-04-12T09:15:15.962Z,6.28
2019-04-12T09:16:15.925Z,6.38
2019-04-12T09:17:15.872Z,6.46
2019-04-12T09:18:15.899Z,6.43
2019-04-12T09:19:15.802Z,6.48
2019-04-12T09:20:15.766Z,6.41
2019-04-12T09:21:15.758Z,6.49
2019-04-12T09:22:15.711Z,6.36
2019-04-12T09:23:15.840Z,6.38
2019-04-12T09:24:15.675Z,6.12
2019-04-12T09:25:15.801Z,5.90
2019-04-12T09:26:15.692Z,5.63
2019-04-12T09:27:15.596Z,5.63
2019-04-12T09:28:24.429Z,5.51
2019-04-12T09:29:15.614Z,5.65
2019-04-12T09:30:15.530Z,5.61
2019-04-12T09:31:15.563Z,5.60
2019-04-12T09:32:15.519Z,5.64
2019-04-12T09:33:15.559Z,5.79
2019-04-12T09:34:17.088Z,5.93
2019-04-12T09:35:15.400Z,6.01
2019-04-12T09:36:15.377Z,5.93
2019-04-12T09:37:15.357Z,5.82
2019-04-12T09:38:15.329Z,5.90
2019-04-12T09:39:15.304Z,6.04
2019-04-12T09:40:15.281Z,6.01
2019-04-12T09:41:15.284Z,6.08
2019-04-12T09:42:15.233Z,6.15
2019-04-12T09:43:15.208Z,6.27
2019-04-12T09:44:15.185Z,6.31
2019-04-12T09:45:15.175Z,6.38
2019-04-12T09:46:15.139Z,6.49
2019-04-12T09:47:15.111Z,6.38
2019-04-12T09:48:15.100Z,6.30
2019-04-12T09:49:15.064Z,6.18
2019-04-12T09:50:15.041Z,6.15
2019-04-12T09:51:15.016Z,6.30
2019-04-12T09:52:14.993Z,6.36
2019-04-12T09:53:14.972Z,6.41
2019-04-12T09:54:14.947Z,6.44
2019-04-12T09:55:15.191Z,6.56
2019-04-12T09:56:14.897Z,6.46
2019-04-12T09:57:14.872Z,6.40
2019-04-12T09:58:14.864Z,6.46
2019-04-12T09:59:14.832Z,6.49
2019-04-12T10:00:14.799Z,6.48
2019-04-12T10:01:14.782Z,6.41
2019-04-12T10:02:14.759Z,6.46
2019-04-12T10:03:14.733Z,6.37
2019-04-12T10:04:14.704Z,6.40
2019-04-12T10:05:14.685Z,6.40
2019-04-12T10:06:14.654Z,6.40
2019-04-12T10:07:14.637Z,6.36
2019-04-12T10:08:14.609Z,6.44
2019-04-12T10:09:26.920Z,6.38
2019-04-12T10:10:14.560Z,6.48
2019-04-12T10:11:14.536Z,6.43
2019-04-12T10:12:14.513Z,6.44
2019-04-12T10:13:14.490Z,6.41
2019-04-12T10:14:14.799Z,6.59
2019-04-12T10:15:14.439Z,6.55
2019-04-12T10:16:14.426Z,6.62
2019-04-12T10:17:14.394Z,6.66
2019-04-12T10:18:14.369Z,6.76
2019-04-12T10:19:14.342Z,6.62
2019-04-12T10:20:14.335Z,6.69
2019-04-12T10:21:14.298Z,6.79
2019-04-12T10:22:14.276Z,6.85
2019-04-12T10:23:14.269Z,6.97
2019-04-12T10:24:14.225Z,7.03
2019-04-12T10:25:14.205Z,7.07
2019-04-12T10:26:15.644Z,7.03
2019-04-12T10:27:14.174Z,6.97
2019-04-12T10:28:14.142Z,6.91
2019-04-12T10:29:14.107Z,6.79
2019-04-12T10:30:14.097Z,6.74
2019-04-12T10:31:14.060Z,6.61
2019-04-12T10:32:14.035Z,6.59
2019-04-12T10:33:14.020Z,6.46
2019-04-12T10:34:13.989Z,6.37
2019-04-12T10:35:13.966Z,6.25
2019-04-12T10:36:13.942Z,6.15
2019-04-12T10:37:13.916Z,6.06
2019-04-12T10:38:13.901Z,5.94
2019-04-12T10:39:13.869Z,5.85
2019-04-12T10:40:13.846Z,5.81
2019-04-12T10:41:13.825Z,5.75
2019-04-12T10:42:13.801Z,5.72
2019-04-12T10:43:13.806Z,5.67
2019-04-12T10:44:13.756Z,5.68
2019-04-12T10:45:13.725Z,5.60
2019-04-12T10:46:13.705Z,5.75
2019-04-12T10:47:13.680Z,5.76
2019-04-12T10:48:13.655Z,5.83
2019-04-12T10:49:13.631Z,5.79
2019-04-12T10:50:13.617Z,5.83
2019-04-12T10:51:13.593Z,5.91
2019-04-12T10:52:13.556Z,5.99
2019-04-12T10:53:13.533Z,6.06
2019-04-12T10:54:13.509Z,5.94
2019-04-12T10:55:13.484Z,5.96
2019-04-12T10:56:13.462Z,6.04
2019-04-12T10:57:13.437Z,6.04
2019-04-12T10:58:13.416Z,6.25
2019-04-12T10:59:13.388Z,6.33
2019-04-12T11:00:13.365Z,6.36
2019-04-12T11:01:13.341Z,6.38
2019-04-12T11:02:13.323Z,6.34
2019-04-12T11:03:13.291Z,6.30
2019-04-12T11:04:13.272Z,6.36
2019-04-12T11:05:13.245Z,6.36
2019-04-12T11:06:13.222Z,6.30
2019-04-12T11:07:13.201Z,6.34
2019-04-12T11:08:13.174Z,6.37
2019-04-12T11:09:13.158Z,6.43
2019-04-12T11:10:13.127Z,6.48
2019-04-12T11:11:13.106Z,6.48
2019-04-12T11:12:13.080Z,6.55
2019-04-12T11:13:13.052Z,6.46
2019-04-12T11:14:13.037Z,6.48
2019-04-12T11:15:21.070Z,6.41
2019-04-12T11:16:12.983Z,6.38
2019-04-12T11:17:12.958Z,6.44
2019-04-12T11:18:12.935Z,6.41
2019-04-12T11:19:12.911Z,6.43
2019-04-12T11:20:12.885Z,6.44
2019-04-12T11:21:12.864Z,6.41
2019-04-12T11:22:12.837Z,6.33
2019-04-12T11:23:12.825Z,6.38
2019-04-12T11:24:12.800Z,6.37
2019-04-12T11:25:12.773Z,6.37
2019-04-12T11:26:12.742Z,6.41
2019-04-12T11:27:12.722Z,6.34
2019-04-12T11:28:12.700Z,6.38
2019-04-12T11:29:17.137Z,6.14
2019-04-12T11:30:12.651Z,6.19
2019-04-12T11:31:12.627Z,6.19
2019-04-12T11:32:12.606Z,6.03
2019-04-12T11:33:12.580Z,6.06
2019-04-12T11:34:12.554Z,6.03
2019-04-12T11:35:12.529Z,6.15
2019-04-12T11:36:12.508Z,6.12
2019-04-12T11:37:12.491Z,6.17
2019-04-12T11:38:12.462Z,6.03
2019-04-12T11:39:12.429Z,6.04
2019-04-12T11:40:12.408Z,6.08
2019-04-12T11:41:12.381Z,6.01
2019-04-12T11:42:12.366Z,5.93
2019-04-12T11:43:12.344Z,5.91
2019-04-12T11:44:12.309Z,5.64
2019-04-12T11:45:12.301Z,5.64
2019-04-12T11:46:12.263Z,5.83
2019-04-12T11:47:12.242Z,5.78
2019-04-12T11:48:12.212Z,5.82
2019-04-12T11:49:12.201Z,5.97
2019-04-12T11:50:12.165Z,5.97
2019-04-12T11:51:12.141Z,6.04
2019-04-12T11:52:12.116Z,5.97
2019-04-12T11:53:12.106Z,6.01
2019-04-12T11:54:12.076Z,6.00
2019-04-12T11:55:12.050Z,5.90
2019-04-12T11:56:12.024Z,6.11
2019-04-12T11:57:12.003Z,6.06
2019-04-12T11:58:11.980Z,6.18
2019-04-12T11:59:11.956Z,6.11
2019-04-12T12:00:11.925Z,6.01
2019-04-12T12:01:11.905Z,6.06
2019-04-12T12:02:11.874Z,6.04
2019-04-12T12:03:11.849Z,5.93
2019-04-12T12:04:11.836Z,6.03
2019-04-12T12:05:11.813Z,6.01
2019-04-12T12:06:11.781Z,5.96
2019-04-12T12:07:11.760Z,6.09
2019-04-12T12:08:11.730Z,5.97
2019-04-12T12:09:11.712Z,6.01
2019-04-12T12:10:11.690Z,5.94
2019-04-12T12:11:11.659Z,5.99
2019-04-12T12:12:11.630Z,5.99
2019-04-12T12:13:11.614Z,5.99
2019-04-12T12:14:11.585Z,6.03
2019-04-12T12:15:11.569Z,6.08
2019-04-12T12:16:11.537Z,6.15
2019-04-12T12:17:11.519Z,6.22
2019-04-12T12:18:11.496Z,6.27
2019-04-12T12:19:11.461Z,6.31
2019-04-12T12:20:11.436Z,6.15
2019-04-12T12:21:11.437Z,6.25
2019-04-12T12:22:11.395Z,6.21
2019-04-12T12:23:11.375Z,6.28
2019-04-12T12:24:11.341Z,6.21
2019-04-12T12:25:11.319Z,6.09
2019-04-12T12:26:11.293Z,6.33
2019-04-12T12:27:11.281Z,6.43
2019-04-12T12:28:11.255Z,6.56
2019-04-12T12:29:11.225Z,6.46
2019-04-12T12:30:11.196Z,6.34
2019-04-12T12:31:11.174Z,6.33
2019-04-12T12:32:11.156Z,6.36
2019-04-12T12:33:11.130Z,6.33
2019-04-12T12:34:11.120Z,6.19
2019-04-12T12:35:11.077Z,6.34
2019-04-12T12:36:11.063Z,6.33
2019-04-12T12:37:11.031Z,6.30
2019-04-12T12:38:11.007Z,6.17
2019-04-12T12:39:10.994Z,6.28
2019-04-12T12:40:10.955Z,6.30
2019-04-12T12:41:10.932Z,6.43
2019-04-12T12:42:10.911Z,6.62
2019-04-12T12:43:10.886Z,6.77
2019-04-12T12:44:10.873Z,6.84
2019-04-12T12:45:10.840Z,6.66
2019-04-12T12:46:10.816Z,6.70
2019-04-12T12:47:10.795Z,6.74
2019-04-12T12:48:10.768Z,6.80
2019-04-12T12:49:10.745Z,6.81
2019-04-12T12:50:10.715Z,6.81
2019-04-12T12:51:10.706Z,6.80
2019-04-12T12:52:10.665Z,6.73
2019-04-12T12:53:10.644Z,6.61
2019-04-12T12:54:10.621Z,6.41
2019-04-12T12:55:10.601Z,6.25
2019-04-12T12:56:10.634Z,6.28
2019-04-12T12:57:10.547Z,6.15
2019-04-12T12:58:10.524Z,6.01
2019-04-12T12:59:10.506Z,6.06
2019-04-12T13:00:10.474Z,6.06
2019-04-12T13:01:10.452Z,6.01
2019-04-12T13:02:10.426Z,6.06
2019-04-12T13:03:10.407Z,6.08
2019-04-12T13:04:10.379Z,6.00
2019-04-12T13:05:10.357Z,5.99
2019-04-12T13:06:10.332Z,6.08
2019-04-12T13:07:10.310Z,6.09
2019-04-12T13:08:10.287Z,6.17
2019-04-12T13:09:10.263Z,6.03
2019-04-12T13:10:10.237Z,6.06
2019-04-12T13:11:10.214Z,5.99
2019-04-12T13:12:10.185Z,6.03
2019-04-12T13:13:10.178Z,6.06
2019-04-12T13:14:10.138Z,6.09
2019-04-12T13:15:10.133Z,6.06
2019-04-12T13:16:10.087Z,6.04
2019-04-12T13:17:10.070Z,6.15
2019-04-12T13:18:10.045Z,6.14